sensor_id;sensor_type;location;lat;lon;timestamp;temperature;humidity
18888;DHT22;9576;47.792;9.628;2023-07-30T00:01:54;18.00;99.90
18888;DHT22;9576;47.792;9.628;2023-07-30T00:04:56;17.90;99.90
18888;DHT22;9576;47.792;9.628;2023-07-30T00:07:58;18.00;99.90
18888;DHT22;9576;47.792;9.628;2023-07-30T00:11:00;17.90;99.90
18888;DHT22;9576;47.792;9.628;2023-07-30T00:14:13;17.90;99.90
18888;DHT22;9576;47.792;9.628;2023-07-30T00:17:15;18.00;99.90
18888;DHT22;9576;47.792;9.628;2023-07-30T00:20:17;17.90;99.90
18888;DHT22;9576;47.792;9.628;2023-07-30T00:23:19;17.90;99.90
18888;DHT22;9576;47.792;9.628;2023-07-30T00:26:21;17.90;99.90
18888;DHT22;9576;47.792;9.628;2023-07-30T00:29:25;17.80;99.90
18888;DHT22;9576;47.792;9.628;2023-07-30T00:32:27;17.90;99.90
18888;DHT22;9576;47.792;9.628;2023-07-30T00:35:29;17.90;99.90
18888;DHT22;9576;47.792;9.628;2023-07-30T00:38:31;17.90;99.90
18888;DHT22;9576;47.792;9.628;2023-07-30T00:41:33;17.90;99.90
18888;DHT22;9576;47.792;9.628;2023-07-30T00:44:36;17.90;99.90
18888;DHT22;9576;47.792;9.628;2023-07-30T00:47:38;17.90;99.90
18888;DHT22;9576;47.792;9.628;2023-07-30T00:50:40;17.90;99.90
18888;DHT22;9576;47.792;9.628;2023-07-30T00:53:43;17.90;99.90
18888;DHT22;9576;47.792;9.628;2023-07-30T00:56:50;17.90;99.90
18888;DHT22;9576;47.792;9.628;2023-07-30T00:59:54;17.90;99.90
18888;DHT22;9576;47.792;9.628;2023-07-30T01:02:56;17.80;99.90
18888;DHT22;9576;47.792;9.628;2023-07-30T01:05:58;17.80;99.90
18888;DHT22;9576;47.792;9.628;2023-07-30T01:09:00;17.80;99.90
18888;DHT22;9576;47.792;9.628;2023-07-30T01:12:03;17.80;99.90
18888;DHT22;9576;47.792;9.628;2023-07-30T01:15:09;17.80;99.90
18888;DHT22;9576;47.792;9.628;2023-07-30T01:18:11;17.70;99.90
18888;DHT22;9576;47.792;9.628;2023-07-30T01:21:14;17.70;99.90
18888;DHT22;9576;47.792;9.628;2023-07-30T01:24:16;17.70;99.90
18888;DHT22;9576;47.792;9.628;2023-07-30T01:27:22;17.70;99.90
18888;DHT22;9576;47.792;9.628;2023-07-30T01:30:27;17.80;99.90
18888;DHT22;9576;47.792;9.628;2023-07-30T01:33:31;17.80;99.90
18888;DHT22;9576;47.792;9.628;2023-07-30T01:36:35;17.80;99.90
18888;DHT22;9576;47.792;9.628;2023-07-30T01:39:39;17.80;99.90
18888;DHT22;9576;47.792;9.628;2023-07-30T01:42:42;17.70;99.90
18888;DHT22;9576;47.792;9.628;2023-07-30T01:45:44;17.70;99.90
18888;DHT22;9576;47.792;9.628;2023-07-30T01:48:46;17.70;99.90
18888;DHT22;9576;47.792;9.628;2023-07-30T01:51:52;17.70;99.90
18888;DHT22;9576;47.792;9.628;2023-07-30T01:54:53;17.60;99.90
18888;DHT22;9576;47.792;9.628;2023-07-30T01:57:56;17.60;99.90
18888;DHT22;9576;47.792;9.628;2023-07-30T02:00:58;17.50;99.90
18888;DHT22;9576;47.792;9.628;2023-07-30T02:04:00;17.50;99.90
18888;DHT22;9576;47.792;9.628;2023-07-30T02:07:04;17.40;99.90
18888;DHT22;9576;47.792;9.628;2023-07-30T02:10:06;17.40;99.90
18888;DHT22;9576;47.792;9.628;2023-07-30T02:13:08;17.40;99.90
18888;DHT22;9576;47.792;9.628;2023-07-30T02:16:10;17.30;99.90
18888;DHT22;9576;47.792;9.628;2023-07-30T02:19:12;17.30;99.90
18888;DHT22;9576;47.792;9.628;2023-07-30T02:22:15;17.30;99.90
18888;DHT22;9576;47.792;9.628;2023-07-30T02:25:17;17.30;99.90
18888;DHT22;9576;47.792;9.628;2023-07-30T02:28:19;17.20;99.90
18888;DHT22;9576;47.792;9.628;2023-07-30T02:31:21;17.20;99.90
18888;DHT22;9576;47.792;9.628;2023-07-30T02:34:23;17.10;99.90
18888;DHT22;9576;47.792;9.628;2023-07-30T02:37:27;17.10;99.90
18888;DHT22;9576;47.792;9.628;2023-07-30T02:40:29;17.10;99.90
18888;DHT22;9576;47.792;9.628;2023-07-30T02:43:31;17.00;99.90
18888;DHT22;9576;47.792;9.628;2023-07-30T02:46:33;17.00;99.90
18888;DHT22;9576;47.792;9.628;2023-07-30T02:49:35;17.00;99.90
18888;DHT22;9576;47.792;9.628;2023-07-30T02:52:38;17.10;99.90
18888;DHT22;9576;47.792;9.628;2023-07-30T02:55:40;17.10;99.90
18888;DHT22;9576;47.792;9.628;2023-07-30T02:58:42;17.10;99.90
18888;DHT22;9576;47.792;9.628;2023-07-30T03:01:44;17.20;99.90
18888;DHT22;9576;47.792;9.628;2023-07-30T03:04:46;17.20;99.90
18888;DHT22;9576;47.792;9.628;2023-07-30T03:07:49;17.30;99.90
18888;DHT22;9576;47.792;9.628;2023-07-30T03:10:51;17.10;99.90
18888;DHT22;9576;47.792;9.628;2023-07-30T03:13:53;16.90;99.90
18888;DHT22;9576;47.792;9.628;2023-07-30T03:16:55;16.80;99.90
18888;DHT22;9576;47.792;9.628;2023-07-30T03:19:57;16.80;99.90
18888;DHT22;9576;47.792;9.628;2023-07-30T03:23:00;16.80;99.90
18888;DHT22;9576;47.792;9.628;2023-07-30T03:26:02;16.70;99.90
18888;DHT22;9576;47.792;9.628;2023-07-30T03:29:04;16.70;99.90
18888;DHT22;9576;47.792;9.628;2023-07-30T03:32:06;16.60;99.90
18888;DHT22;9576;47.792;9.628;2023-07-30T03:35:08;16.60;99.90
18888;DHT22;9576;47.792;9.628;2023-07-30T03:38:12;16.60;99.90
18888;DHT22;9576;47.792;9.628;2023-07-30T03:41:14;16.50;99.90
18888;DHT22;9576;47.792;9.628;2023-07-30T03:44:15;16.50;99.90
18888;DHT22;9576;47.792;9.628;2023-07-30T03:47:17;16.40;99.90
18888;DHT22;9576;47.792;9.628;2023-07-30T03:50:19;16.50;99.90
18888;DHT22;9576;47.792;9.628;2023-07-30T03:53:22;16.50;99.90
18888;DHT22;9576;47.792;9.628;2023-07-30T03:56:24;16.50;99.90
18888;DHT22;9576;47.792;9.628;2023-07-30T03:59:26;16.50;99.90
18888;DHT22;9576;47.792;9.628;2023-07-30T04:02:29;16.60;99.90
18888;DHT22;9576;47.792;9.628;2023-07-30T04:05:31;16.60;99.90
18888;DHT22;9576;47.792;9.628;2023-07-30T04:08:34;16.60;99.90
18888;DHT22;9576;47.792;9.628;2023-07-30T04:11:36;16.60;99.90
18888;DHT22;9576;47.792;9.628;2023-07-30T04:14:38;16.60;99.90
18888;DHT22;9576;47.792;9.628;2023-07-30T04:17:40;16.60;99.90
18888;DHT22;9576;47.792;9.628;2023-07-30T04:20:42;16.70;99.90
18888;DHT22;9576;47.792;9.628;2023-07-30T04:23:45;16.70;99.90
18888;DHT22;9576;47.792;9.628;2023-07-30T04:26:47;16.70;99.90
18888;DHT22;9576;47.792;9.628;2023-07-30T04:29:49;16.80;99.90
18888;DHT22;9576;47.792;9.628;2023-07-30T04:32:51;16.80;99.90
18888;DHT22;9576;47.792;9.628;2023-07-30T04:35:53;16.80;99.90
18888;DHT22;9576;47.792;9.628;2023-07-30T04:38:56;16.90;99.90
18888;DHT22;9576;47.792;9.628;2023-07-30T04:41:58;16.90;99.90
18888;DHT22;9576;47.792;9.628;2023-07-30T04:45:00;17.00;99.90
18888;DHT22;9576;47.792;9.628;2023-07-30T04:48:02;17.00;99.90
18888;DHT22;9576;47.792;9.628;2023-07-30T04:51:04;17.10;99.90
18888;DHT22;9576;47.792;9.628;2023-07-30T04:54:07;17.10;99.90
18888;DHT22;9576;47.792;9.628;2023-07-30T04:57:09;17.10;99.90
18888;DHT22;9576;47.792;9.628;2023-07-30T05:00:12;17.10;99.90
18888;DHT22;9576;47.792;9.628;2023-07-30T05:03:14;17.10;99.90
18888;DHT22;9576;47.792;9.628;2023-07-30T05:06:16;17.10;99.90
18888;DHT22;9576;47.792;9.628;2023-07-30T05:09:19;17.20;99.90
18888;DHT22;9576;47.792;9.628;2023-07-30T05:12:21;17.20;99.90
18888;DHT22;9576;47.792;9.628;2023-07-30T05:15:23;17.30;99.90
18888;DHT22;9576;47.792;9.628;2023-07-30T05:18:25;17.40;99.90
18888;DHT22;9576;47.792;9.628;2023-07-30T05:21:27;17.40;99.90
18888;DHT22;9576;47.792;9.628;2023-07-30T05:24:30;17.40;99.90
18888;DHT22;9576;47.792;9.628;2023-07-30T05:27:32;17.50;99.90
18888;DHT22;9576;47.792;9.628;2023-07-30T05:30:34;17.50;99.90
18888;DHT22;9576;47.792;9.628;2023-07-30T05:33:36;17.60;99.90
18888;DHT22;9576;47.792;9.628;2023-07-30T05:36:38;17.60;99.90
18888;DHT22;9576;47.792;9.628;2023-07-30T05:39:41;17.70;99.90
18888;DHT22;9576;47.792;9.628;2023-07-30T05:42:43;17.80;99.90
18888;DHT22;9576;47.792;9.628;2023-07-30T05:45:45;17.90;99.90
18888;DHT22;9576;47.792;9.628;2023-07-30T05:48:47;18.00;99.90
18888;DHT22;9576;47.792;9.628;2023-07-30T05:51:49;18.20;99.90
18888;DHT22;9576;47.792;9.628;2023-07-30T05:54:52;18.20;99.90
18888;DHT22;9576;47.792;9.628;2023-07-30T05:57:54;18.30;99.90
18888;DHT22;9576;47.792;9.628;2023-07-30T06:00:56;18.30;99.90
18888;DHT22;9576;47.792;9.628;2023-07-30T06:03:58;18.40;99.90
18888;DHT22;9576;47.792;9.628;2023-07-30T06:07:01;18.50;99.90
18888;DHT22;9576;47.792;9.628;2023-07-30T06:10:06;18.50;99.90
18888;DHT22;9576;47.792;9.628;2023-07-30T06:13:08;18.50;99.90
18888;DHT22;9576;47.792;9.628;2023-07-30T06:16:10;18.50;99.90
18888;DHT22;9576;47.792;9.628;2023-07-30T06:19:12;18.50;99.90
18888;DHT22;9576;47.792;9.628;2023-07-30T06:22:14;18.70;99.90
18888;DHT22;9576;47.792;9.628;2023-07-30T06:25:17;18.80;99.90
18888;DHT22;9576;47.792;9.628;2023-07-30T06:28:19;19.00;99.90
18888;DHT22;9576;47.792;9.628;2023-07-30T06:31:21;19.00;99.90
18888;DHT22;9576;47.792;9.628;2023-07-30T06:34:23;19.10;99.90
18888;DHT22;9576;47.792;9.628;2023-07-30T06:37:25;19.10;99.90
18888;DHT22;9576;47.792;9.628;2023-07-30T06:40:28;19.20;99.90
18888;DHT22;9576;47.792;9.628;2023-07-30T06:43:30;19.30;99.90
18888;DHT22;9576;47.792;9.628;2023-07-30T06:46:32;19.40;99.90
18888;DHT22;9576;47.792;9.628;2023-07-30T06:49:34;19.50;99.90
18888;DHT22;9576;47.792;9.628;2023-07-30T06:52:36;19.60;99.90
18888;DHT22;9576;47.792;9.628;2023-07-30T06:55:39;19.60;99.90
18888;DHT22;9576;47.792;9.628;2023-07-30T06:58:41;19.60;99.90
18888;DHT22;9576;47.792;9.628;2023-07-30T07:01:43;19.60;99.90
18888;DHT22;9576;47.792;9.628;2023-07-30T07:04:45;19.60;99.90
18888;DHT22;9576;47.792;9.628;2023-07-30T07:07:47;19.60;99.90
18888;DHT22;9576;47.792;9.628;2023-07-30T07:10:50;19.50;99.90
18888;DHT22;9576;47.792;9.628;2023-07-30T07:13:52;19.50;99.90
18888;DHT22;9576;47.792;9.628;2023-07-30T07:16:54;19.70;99.90
18888;DHT22;9576;47.792;9.628;2023-07-30T07:19:57;19.90;99.90
18888;DHT22;9576;47.792;9.628;2023-07-30T07:22:59;20.00;99.90
18888;DHT22;9576;47.792;9.628;2023-07-30T07:26:03;20.10;99.90
18888;DHT22;9576;47.792;9.628;2023-07-30T07:29:05;20.20;99.90
18888;DHT22;9576;47.792;9.628;2023-07-30T07:32:07;20.30;99.90
18888;DHT22;9576;47.792;9.628;2023-07-30T07:35:09;20.40;99.90
18888;DHT22;9576;47.792;9.628;2023-07-30T07:38:11;20.50;99.90
18888;DHT22;9576;47.792;9.628;2023-07-30T07:41:16;20.60;99.90
18888;DHT22;9576;47.792;9.628;2023-07-30T07:44:18;20.70;99.90
18888;DHT22;9576;47.792;9.628;2023-07-30T07:47:19;20.60;99.90
18888;DHT22;9576;47.792;9.628;2023-07-30T07:50:21;20.60;99.90
18888;DHT22;9576;47.792;9.628;2023-07-30T07:53:23;20.60;99.90
18888;DHT22;9576;47.792;9.628;2023-07-30T07:56:27;20.60;99.90
18888;DHT22;9576;47.792;9.628;2023-07-30T07:59:28;20.60;99.90
18888;DHT22;9576;47.792;9.628;2023-07-30T08:02:30;20.60;99.90
18888;DHT22;9576;47.792;9.628;2023-07-30T08:05:32;20.50;99.90
18888;DHT22;9576;47.792;9.628;2023-07-30T08:08:34;20.40;99.90
18888;DHT22;9576;47.792;9.628;2023-07-30T08:11:38;20.50;99.90
18888;DHT22;9576;47.792;9.628;2023-07-30T08:14:40;20.50;99.90
18888;DHT22;9576;47.792;9.628;2023-07-30T08:17:41;20.70;99.90
18888;DHT22;9576;47.792;9.628;2023-07-30T08:20:43;20.80;99.90
18888;DHT22;9576;47.792;9.628;2023-07-30T08:23:46;20.90;99.90
18888;DHT22;9576;47.792;9.628;2023-07-30T08:26:49;21.10;99.90
18888;DHT22;9576;47.792;9.628;2023-07-30T08:29:51;21.40;99.90
18888;DHT22;9576;47.792;9.628;2023-07-30T08:32:53;21.50;99.90
18888;DHT22;9576;47.792;9.628;2023-07-30T08:35:55;21.40;99.90
18888;DHT22;9576;47.792;9.628;2023-07-30T08:38:57;21.30;99.90
18888;DHT22;9576;47.792;9.628;2023-07-30T08:42:01;21.10;99.90
18888;DHT22;9576;47.792;9.628;2023-07-30T08:45:06;21.10;99.90
18888;DHT22;9576;47.792;9.628;2023-07-30T08:48:09;21.10;99.90
18888;DHT22;9576;47.792;9.628;2023-07-30T08:51:11;21.00;99.90
18888;DHT22;9576;47.792;9.628;2023-07-30T08:54:14;21.30;99.90
18888;DHT22;9576;47.792;9.628;2023-07-30T08:57:19;21.50;99.90
18888;DHT22;9576;47.792;9.628;2023-07-30T09:00:24;21.50;99.90
18888;DHT22;9576;47.792;9.628;2023-07-30T09:03:27;21.60;99.90
18888;DHT22;9576;47.792;9.628;2023-07-30T09:06:32;21.70;99.90
18888;DHT22;9576;47.792;9.628;2023-07-30T09:09:35;21.70;99.90
18888;DHT22;9576;47.792;9.628;2023-07-30T09:12:39;21.80;99.90
18888;DHT22;9576;47.792;9.628;2023-07-30T09:15:41;21.80;99.90
18888;DHT22;9576;47.792;9.628;2023-07-30T09:18:45;21.70;99.90
18888;DHT22;9576;47.792;9.628;2023-07-30T09:21:49;21.60;99.90
18888;DHT22;9576;47.792;9.628;2023-07-30T09:24:51;21.60;99.90
18888;DHT22;9576;47.792;9.628;2023-07-30T09:27:55;21.70;99.90
18888;DHT22;9576;47.792;9.628;2023-07-30T09:31:00;21.90;99.90
18888;DHT22;9576;47.792;9.628;2023-07-30T09:34:01;21.90;99.90
18888;DHT22;9576;47.792;9.628;2023-07-30T09:37:04;22.00;99.90
18888;DHT22;9576;47.792;9.628;2023-07-30T09:40:08;22.00;99.90
18888;DHT22;9576;47.792;9.628;2023-07-30T09:43:11;22.10;99.90
18888;DHT22;9576;47.792;9.628;2023-07-30T09:46:13;22.20;99.90
18888;DHT22;9576;47.792;9.628;2023-07-30T09:49:15;22.20;99.90
18888;DHT22;9576;47.792;9.628;2023-07-30T09:52:18;22.20;99.90
18888;DHT22;9576;47.792;9.628;2023-07-30T09:55:20;22.40;99.90
18888;DHT22;9576;47.792;9.628;2023-07-30T09:58:23;22.60;99.90
18888;DHT22;9576;47.792;9.628;2023-07-30T10:01:26;22.90;99.90
18888;DHT22;9576;47.792;9.628;2023-07-30T10:04:31;23.00;99.90
18888;DHT22;9576;47.792;9.628;2023-07-30T10:07:34;22.80;99.90
18888;DHT22;9576;47.792;9.628;2023-07-30T10:10:37;22.60;99.90
18888;DHT22;9576;47.792;9.628;2023-07-30T10:13:41;22.60;99.90
18888;DHT22;9576;47.792;9.628;2023-07-30T10:16:50;22.60;99.90
18888;DHT22;9576;47.792;9.628;2023-07-30T10:19:52;22.90;99.90
18888;DHT22;9576;47.792;9.628;2023-07-30T10:22:56;23.10;99.90
18888;DHT22;9576;47.792;9.628;2023-07-30T10:25:57;23.20;99.90
18888;DHT22;9576;47.792;9.628;2023-07-30T10:29:12;23.10;99.90
18888;DHT22;9576;47.792;9.628;2023-07-30T10:32:14;22.80;99.90
18888;DHT22;9576;47.792;9.628;2023-07-30T10:35:40;22.60;99.90
18888;DHT22;9576;47.792;9.628;2023-07-30T10:38:42;22.50;99.90
18888;DHT22;9576;47.792;9.628;2023-07-30T10:41:45;22.50;99.90
18888;DHT22;9576;47.792;9.628;2023-07-30T10:44:49;22.50;99.90
18888;DHT22;9576;47.792;9.628;2023-07-30T10:47:51;22.30;99.90
18888;DHT22;9576;47.792;9.628;2023-07-30T10:50:53;22.30;99.90
18888;DHT22;9576;47.792;9.628;2023-07-30T10:53:55;22.40;99.90
18888;DHT22;9576;47.792;9.628;2023-07-30T10:56:57;22.70;99.90
18888;DHT22;9576;47.792;9.628;2023-07-30T11:00:00;23.10;99.90
18888;DHT22;9576;47.792;9.628;2023-07-30T11:03:05;23.40;99.90
18888;DHT22;9576;47.792;9.628;2023-07-30T11:06:07;23.40;99.90
18888;DHT22;9576;47.792;9.628;2023-07-30T11:09:18;23.40;99.90
18888;DHT22;9576;47.792;9.628;2023-07-30T11:12:20;23.50;99.90
18888;DHT22;9576;47.792;9.628;2023-07-30T11:15:25;23.70;99.90
18888;DHT22;9576;47.792;9.628;2023-07-30T11:18:31;23.90;99.90
18888;DHT22;9576;47.792;9.628;2023-07-30T11:21:34;24.20;99.90
18888;DHT22;9576;47.792;9.628;2023-07-30T11:24:37;24.30;99.90
18888;DHT22;9576;47.792;9.628;2023-07-30T11:27:45;24.30;99.90
18888;DHT22;9576;47.792;9.628;2023-07-30T11:30:50;24.10;99.90
18888;DHT22;9576;47.792;9.628;2023-07-30T11:33:53;24.00;99.90
18888;DHT22;9576;47.792;9.628;2023-07-30T11:36:55;23.80;99.90
18888;DHT22;9576;47.792;9.628;2023-07-30T11:39:57;24.00;99.90
18888;DHT22;9576;47.792;9.628;2023-07-30T11:42:59;24.10;99.90
18888;DHT22;9576;47.792;9.628;2023-07-30T11:46:10;24.10;99.90
18888;DHT22;9576;47.792;9.628;2023-07-30T11:49:15;24.30;99.90
18888;DHT22;9576;47.792;9.628;2023-07-30T11:52:17;24.40;99.90
18888;DHT22;9576;47.792;9.628;2023-07-30T11:55:19;24.70;99.90
18888;DHT22;9576;47.792;9.628;2023-07-30T11:58:21;25.00;99.90
18888;DHT22;9576;47.792;9.628;2023-07-30T12:01:26;25.20;99.90
18888;DHT22;9576;47.792;9.628;2023-07-30T12:04:30;25.10;99.90
18888;DHT22;9576;47.792;9.628;2023-07-30T12:07:33;25.20;99.90
18888;DHT22;9576;47.792;9.628;2023-07-30T12:10:41;25.20;99.90
18888;DHT22;9576;47.792;9.628;2023-07-30T12:13:44;25.10;99.90
18888;DHT22;9576;47.792;9.628;2023-07-30T12:16:48;25.20;99.90
18888;DHT22;9576;47.792;9.628;2023-07-30T12:19:49;25.40;99.90
18888;DHT22;9576;47.792;9.628;2023-07-30T12:22:51;25.80;99.90
18888;DHT22;9576;47.792;9.628;2023-07-30T12:25:53;26.00;99.90
18888;DHT22;9576;47.792;9.628;2023-07-30T12:28:55;26.00;99.90
18888;DHT22;9576;47.792;9.628;2023-07-30T12:31:58;26.30;99.90
18888;DHT22;9576;47.792;9.628;2023-07-30T12:35:00;26.50;99.90
18888;DHT22;9576;47.792;9.628;2023-07-30T12:38:02;26.60;99.90
18888;DHT22;9576;47.792;9.628;2023-07-30T12:41:04;26.40;99.90
18888;DHT22;9576;47.792;9.628;2023-07-30T12:44:06;26.50;99.90
18888;DHT22;9576;47.792;9.628;2023-07-30T12:47:11;26.90;99.90
18888;DHT22;9576;47.792;9.628;2023-07-30T12:50:13;26.60;99.90
18888;DHT22;9576;47.792;9.628;2023-07-30T12:53:15;26.50;99.50
18888;DHT22;9576;47.792;9.628;2023-07-30T12:56:17;26.50;99.90
18888;DHT22;9576;47.792;9.628;2023-07-30T12:59:19;26.50;99.90
18888;DHT22;9576;47.792;9.628;2023-07-30T13:02:22;26.30;99.90
18888;DHT22;9576;47.792;9.628;2023-07-30T13:05:24;26.60;99.90
18888;DHT22;9576;47.792;9.628;2023-07-30T13:08:26;27.00;99.90
18888;DHT22;9576;47.792;9.628;2023-07-30T13:11:28;26.90;99.90
18888;DHT22;9576;47.792;9.628;2023-07-30T13:14:30;27.00;99.90
18888;DHT22;9576;47.792;9.628;2023-07-30T13:17:33;27.40;99.90
18888;DHT22;9576;47.792;9.628;2023-07-30T13:20:35;27.50;99.90
18888;DHT22;9576;47.792;9.628;2023-07-30T13:23:37;27.60;99.90
18888;DHT22;9576;47.792;9.628;2023-07-30T13:26:39;27.90;99.90
18888;DHT22;9576;47.792;9.628;2023-07-30T13:29:40;28.00;96.80
18888;DHT22;9576;47.792;9.628;2023-07-30T13:32:44;28.10;98.40
18888;DHT22;9576;47.792;9.628;2023-07-30T13:35:46;27.90;96.10
18888;DHT22;9576;47.792;9.628;2023-07-30T13:38:48;27.90;95.60
18888;DHT22;9576;47.792;9.628;2023-07-30T13:41:50;27.90;95.00
18888;DHT22;9576;47.792;9.628;2023-07-30T13:44:52;27.90;96.00
18888;DHT22;9576;47.792;9.628;2023-07-30T13:47:55;28.10;95.40
18888;DHT22;9576;47.792;9.628;2023-07-30T13:50:57;28.10;95.10
18888;DHT22;9576;47.792;9.628;2023-07-30T13:53:59;28.40;96.60
18888;DHT22;9576;47.792;9.628;2023-07-30T13:57:04;28.70;94.10
18888;DHT22;9576;47.792;9.628;2023-07-30T14:00:07;28.90;94.50
18888;DHT22;9576;47.792;9.628;2023-07-30T14:03:11;29.20;93.90
18888;DHT22;9576;47.792;9.628;2023-07-30T14:06:14;29.30;93.60
18888;DHT22;9576;47.792;9.628;2023-07-30T14:09:15;29.40;94.80
18888;DHT22;9576;47.792;9.628;2023-07-30T14:12:17;29.60;92.00
18888;DHT22;9576;47.792;9.628;2023-07-30T14:15:19;29.90;90.50
18888;DHT22;9576;47.792;9.628;2023-07-30T14:18:24;29.70;91.00
18888;DHT22;9576;47.792;9.628;2023-07-30T14:21:26;29.50;90.40
18888;DHT22;9576;47.792;9.628;2023-07-30T14:24:28;29.40;87.90
18888;DHT22;9576;47.792;9.628;2023-07-30T14:27:30;29.30;90.00
18888;DHT22;9576;47.792;9.628;2023-07-30T14:30:32;29.80;90.20
18888;DHT22;9576;47.792;9.628;2023-07-30T14:33:37;30.10;88.80
18888;DHT22;9576;47.792;9.628;2023-07-30T14:36:39;30.20;90.50
18888;DHT22;9576;47.792;9.628;2023-07-30T14:39:41;29.60;85.30
18888;DHT22;9576;47.792;9.628;2023-07-30T14:42:44;29.70;90.00
18888;DHT22;9576;47.792;9.628;2023-07-30T14:45:46;29.90;86.90
18888;DHT22;9576;47.792;9.628;2023-07-30T14:48:49;30.00;90.90
18888;DHT22;9576;47.792;9.628;2023-07-30T14:51:51;30.30;86.80
18888;DHT22;9576;47.792;9.628;2023-07-30T14:54:53;30.30;88.60
18888;DHT22;9576;47.792;9.628;2023-07-30T14:57:55;30.40;87.30
18888;DHT22;9576;47.792;9.628;2023-07-30T15:00:57;30.30;87.40
18888;DHT22;9576;47.792;9.628;2023-07-30T15:04:00;30.90;87.00
18888;DHT22;9576;47.792;9.628;2023-07-30T15:07:02;31.00;88.70
18888;DHT22;9576;47.792;9.628;2023-07-30T15:10:05;31.10;84.80
18888;DHT22;9576;47.792;9.628;2023-07-30T15:13:07;31.60;88.00
18888;DHT22;9576;47.792;9.628;2023-07-30T15:16:09;32.10;86.10
18888;DHT22;9576;47.792;9.628;2023-07-30T15:19:12;32.30;83.00
18888;DHT22;9576;47.792;9.628;2023-07-30T15:22:14;32.40;84.50
18888;DHT22;9576;47.792;9.628;2023-07-30T15:25:16;32.10;87.80
18888;DHT22;9576;47.792;9.628;2023-07-30T15:28:18;31.90;84.40
18888;DHT22;9576;47.792;9.628;2023-07-30T15:31:20;32.00;85.30
18888;DHT22;9576;47.792;9.628;2023-07-30T15:34:23;32.40;82.50
18888;DHT22;9576;47.792;9.628;2023-07-30T15:37:25;33.00;84.40
18888;DHT22;9576;47.792;9.628;2023-07-30T15:40:27;33.10;82.90
18888;DHT22;9576;47.792;9.628;2023-07-30T15:43:29;33.40;82.80
18888;DHT22;9576;47.792;9.628;2023-07-30T15:46:31;34.20;84.00
18888;DHT22;9576;47.792;9.628;2023-07-30T15:49:34;34.50;79.60
18888;DHT22;9576;47.792;9.628;2023-07-30T15:52:36;34.70;80.20
18888;DHT22;9576;47.792;9.628;2023-07-30T15:55:38;34.70;84.90
18888;DHT22;9576;47.792;9.628;2023-07-30T15:58:40;34.50;77.00
18888;DHT22;9576;47.792;9.628;2023-07-30T16:01:42;34.70;77.60
18888;DHT22;9576;47.792;9.628;2023-07-30T16:04:45;34.40;76.30
18888;DHT22;9576;47.792;9.628;2023-07-30T16:07:47;33.80;76.80
18888;DHT22;9576;47.792;9.628;2023-07-30T16:10:49;33.70;75.70
18888;DHT22;9576;47.792;9.628;2023-07-30T16:13:51;33.40;77.40
18888;DHT22;9576;47.792;9.628;2023-07-30T16:16:53;33.20;79.70
18888;DHT22;9576;47.792;9.628;2023-07-30T16:19:56;33.00;81.40
18888;DHT22;9576;47.792;9.628;2023-07-30T16:22:58;33.00;78.10
18888;DHT22;9576;47.792;9.628;2023-07-30T16:26:01;32.40;77.60
18888;DHT22;9576;47.792;9.628;2023-07-30T16:29:03;32.70;80.20
18888;DHT22;9576;47.792;9.628;2023-07-30T16:32:07;32.70;76.40
18888;DHT22;9576;47.792;9.628;2023-07-30T16:35:10;32.70;75.90
18888;DHT22;9576;47.792;9.628;2023-07-30T16:38:13;32.60;75.70
18888;DHT22;9576;47.792;9.628;2023-07-30T16:41:14;33.00;75.60
18888;DHT22;9576;47.792;9.628;2023-07-30T16:44:16;32.70;74.60
18888;DHT22;9576;47.792;9.628;2023-07-30T16:47:19;32.50;74.60
18888;DHT22;9576;47.792;9.628;2023-07-30T16:50:22;32.60;74.50
18888;DHT22;9576;47.792;9.628;2023-07-30T16:53:24;32.20;75.30
18888;DHT22;9576;47.792;9.628;2023-07-30T16:56:26;32.20;76.10
18888;DHT22;9576;47.792;9.628;2023-07-30T16:59:28;32.30;75.10
18888;DHT22;9576;47.792;9.628;2023-07-30T17:02:30;32.20;77.00
18888;DHT22;9576;47.792;9.628;2023-07-30T17:05:33;31.50;77.10
18888;DHT22;9576;47.792;9.628;2023-07-30T17:08:36;31.50;78.60
18888;DHT22;9576;47.792;9.628;2023-07-30T17:11:38;31.20;79.90
18888;DHT22;9576;47.792;9.628;2023-07-30T17:14:40;31.00;79.20
18888;DHT22;9576;47.792;9.628;2023-07-30T17:17:41;30.70;78.80
18888;DHT22;9576;47.792;9.628;2023-07-30T17:20:55;30.60;80.30
18888;DHT22;9576;47.792;9.628;2023-07-30T17:23:57;30.70;81.50
18888;DHT22;9576;47.792;9.628;2023-07-30T17:26:59;30.70;81.40
18888;DHT22;9576;47.792;9.628;2023-07-30T17:30:01;30.30;80.60
18888;DHT22;9576;47.792;9.628;2023-07-30T17:33:03;29.50;82.00
18888;DHT22;9576;47.792;9.628;2023-07-30T17:36:06;29.00;84.50
18888;DHT22;9576;47.792;9.628;2023-07-30T17:39:09;28.40;84.70
18888;DHT22;9576;47.792;9.628;2023-07-30T17:42:11;27.30;84.50
18888;DHT22;9576;47.792;9.628;2023-07-30T17:45:13;26.40;86.90
18888;DHT22;9576;47.792;9.628;2023-07-30T17:48:15;25.90;87.90
18888;DHT22;9576;47.792;9.628;2023-07-30T17:51:18;25.30;89.80
18888;DHT22;9576;47.792;9.628;2023-07-30T17:54:21;24.90;90.20
18888;DHT22;9576;47.792;9.628;2023-07-30T17:57:22;24.40;91.60
18888;DHT22;9576;47.792;9.628;2023-07-30T18:00:25;24.20;91.60
18888;DHT22;9576;47.792;9.628;2023-07-30T18:03:28;23.90;92.50
18888;DHT22;9576;47.792;9.628;2023-07-30T18:06:31;23.80;92.70
18888;DHT22;9576;47.792;9.628;2023-07-30T18:09:33;23.60;92.80
18888;DHT22;9576;47.792;9.628;2023-07-30T18:12:35;23.50;94.00
18888;DHT22;9576;47.792;9.628;2023-07-30T18:15:37;23.30;96.20
18888;DHT22;9576;47.792;9.628;2023-07-30T18:18:39;23.20;98.60
18888;DHT22;9576;47.792;9.628;2023-07-30T18:21:42;23.00;99.90
18888;DHT22;9576;47.792;9.628;2023-07-30T18:24:45;22.80;99.90
18888;DHT22;9576;47.792;9.628;2023-07-30T18:27:47;22.90;99.90
18888;DHT22;9576;47.792;9.628;2023-07-30T18:30:48;22.70;99.90
18888;DHT22;9576;47.792;9.628;2023-07-30T18:33:50;22.60;99.90
18888;DHT22;9576;47.792;9.628;2023-07-30T18:36:54;22.60;99.90
18888;DHT22;9576;47.792;9.628;2023-07-30T18:39:56;22.40;99.90
18888;DHT22;9576;47.792;9.628;2023-07-30T18:42:59;22.30;99.90
18888;DHT22;9576;47.792;9.628;2023-07-30T18:46:01;22.10;99.90
18888;DHT22;9576;47.792;9.628;2023-07-30T18:49:03;22.00;99.90
18888;DHT22;9576;47.792;9.628;2023-07-30T18:52:07;21.90;99.90
18888;DHT22;9576;47.792;9.628;2023-07-30T18:55:09;21.80;99.90
18888;DHT22;9576;47.792;9.628;2023-07-30T18:58:11;21.50;99.90
18888;DHT22;9576;47.792;9.628;2023-07-30T19:01:13;21.30;99.90
18888;DHT22;9576;47.792;9.628;2023-07-30T19:04:15;21.20;99.90
18888;DHT22;9576;47.792;9.628;2023-07-30T19:07:18;21.20;99.90
18888;DHT22;9576;47.792;9.628;2023-07-30T19:10:20;21.20;99.90
18888;DHT22;9576;47.792;9.628;2023-07-30T19:13:22;21.10;99.90
18888;DHT22;9576;47.792;9.628;2023-07-30T19:16:24;21.10;99.90
18888;DHT22;9576;47.792;9.628;2023-07-30T19:19:26;21.10;99.90
18888;DHT22;9576;47.792;9.628;2023-07-30T19:22:30;20.90;99.90
18888;DHT22;9576;47.792;9.628;2023-07-30T19:25:32;20.90;99.90
18888;DHT22;9576;47.792;9.628;2023-07-30T19:28:33;20.70;99.90
18888;DHT22;9576;47.792;9.628;2023-07-30T19:31:37;20.50;99.90